Sarcobatus Flat, Nevada Weather observations

Data are for observation ending at time listed.
 Day   Time    Ave.   Ave.  Ave.  Vector   Max.   Stn.    Total    Solar   Ave.  
  of    of     Air    Rel.  Wind   Wind    Wind   Baro.  Precip.   Rad.    Soil  
Year   Day     Temp.  Hum.  Speed  Dir.    Gust   Pres.                    Temp. 
2014   (PST)    F      %     mph   deg.    mph     mb.     in.     W/m2     F   
------------------------------------------------------------------------------
 264   16:10   81.4    27   13.3   136     20.0   877.3    0.00     361    999.0
 264   16:20   81.5    27   13.7   143     18.3   877.3    0.00     305    999.0
 264   16:30   81.1    27   14.4   151     18.7   877.4    0.00     270    999.0
 264   16:40   81.1    27   12.9   150     18.3   877.4    0.00     230    999.0
 264   16:50   80.5    28   14.1   147     18.4   877.5    0.00     181    999.0
 264   17:00   80.1    28   13.7   145     18.6   877.5    0.00     142    999.0
 264   17:10   79.9    28   12.3   145     16.1   877.6    0.00     111    999.0
 264   17:20   79.4    29   11.8   146     14.8   877.6    0.00      77    999.0
 264   17:30   78.7    30   12.4   146     16.4   877.6    0.00      35    999.0
 264   17:40   77.8    32   11.7   144     15.5   877.7    0.00      11    999.0
 264   17:50   77.3    32    8.3   140     11.4   877.8    0.00       5    999.0
 264   18:00   76.9    33    6.2   172     10.5   878.0    0.00       1    999.0
 264   18:10   77.0    33    8.4   184     14.1   878.1    0.00       0    999.0
 264   18:20   76.3    34    6.6   168     11.3   878.3    0.00       0    999.0
 264   18:30   76.5    34    8.6   182     12.5   878.3    0.00       0    999.0
 264   18:40   75.7    36    7.2   182     10.7   878.4    0.00       0    999.0
 264   18:50   74.6    40    5.1   180      6.6   878.5    0.00       0    999.0
 264   19:00   73.3    43    3.5   162      5.7   878.7    0.00       0    999.0
 264   19:10   72.2    46    0.4   130      3.8   878.8    0.00       0    999.0
 264   19:20   72.6    43    3.4   136      6.1   878.9    0.00       0    999.0
 264   19:30   71.2    48    4.1   131      4.6   879.0    0.00       0    999.0
 264   19:40   70.1    50    5.4   115      6.7   879.0    0.00       0    999.0
 264   19:50   69.2    52    5.0   114      6.2   879.1    0.00       0    999.0
 264   20:00   69.0    54    4.6   123      5.2   879.2    0.00       0    999.0
 264   20:10   68.5    55    3.3   118      4.7   879.3    0.00       0    999.0
 264   20:20   68.5    54    1.3   106      3.4   879.3    0.00       0    999.0
 264   20:30   68.8    52    2.9   106      3.6   879.3    0.00       0    999.0
 264   20:40   68.9    51    1.2   106      2.5   879.4    0.00       0    999.0
 264   20:50   69.0    50    1.5    63      8.3   879.5    0.00       0    999.0
 264   21:00   69.7    51    5.7   298     10.4   879.5    0.00       0    999.0
 264   21:10   70.2    49    4.8   308      9.0   879.6    0.00       0    999.0
 264   21:20   68.8    52    5.9   329      7.7   879.6    0.00       0    999.0
 264   21:30   68.1    52    6.2   324      8.4   879.7    0.00       0    999.0
 264   21:40   67.8    53    6.3   307      7.8   879.7    0.00       0    999.0
 264   21:50   67.0    54    6.5   306      8.7   879.8    0.00       0    999.0
 264   22:00   67.3    52    8.8   310     11.6   879.8    0.00       0    999.0
 264   22:10   67.6    52    8.1   322     10.1   879.9    0.00       0    999.0
 264   22:20   67.4    53    8.4   324     12.5   880.0    0.00       0    999.0
 264   22:30   67.0    54    5.7   323      9.3   880.0    0.00       0    999.0
 264   22:40   66.5    56    4.4   169      7.3   880.1    0.00       0    999.0
 264   22:50   66.1    57    3.7   290      6.2   880.2    0.00       0    999.0
 264   23:00   66.7    56    5.7   280      8.2   880.2    0.00       0    999.0
 264   23:10   67.0    55    4.8   305      7.9   880.2    0.00       0    999.0
 264   23:20   67.7    52    5.0   300      9.2   880.3    0.00       0    999.0
 264   23:30   67.3    54    2.8   311      5.8   880.4    0.00       0    999.0
 264   23:40   65.7    58    0.6   126      3.4   880.4    0.00       0    999.0
 264   23:50   64.6    62    0.8    51      5.6   880.4    0.00       0    999.0
 265    0:00   62.7    67    1.8    97      3.6   880.5    0.00       0    999.0
 265    0:10   62.6    67    0.0   122      0.8   880.6    0.00       0    999.0
 265    0:20   62.2    68    0.4   332      3.0   880.6    0.00       0    999.0
 265    0:30   62.0    68    1.3   223      4.7   880.7    0.00       0    999.0
 265    0:40   62.0    69    4.4   221      5.8   880.8    0.00       0    999.0
 265    0:50   61.8    69    4.2   233      5.5   880.8    0.00       0    999.0
 265    1:00   61.8    69    2.0   258      5.0   880.8    0.00       0    999.0
 265    1:10   61.2    70    0.2    47      1.9   880.8    0.00       0    999.0
 265    1:20   60.3    74    0.1    48      1.4   880.7    0.00       0    999.0
 265    1:30   60.2    74    1.4   293      5.3   880.8    0.00       0    999.0
 265    1:40   61.1    70    3.5   299      7.8   880.8    0.00       0    999.0
 265    1:50   62.0    69    7.4   322      9.6   880.9    0.00       0    999.0
 265    2:00   62.2    68    8.3   318     10.7   880.9    0.00       0    999.0
 265    2:10   62.3    68    8.7   324     11.3   880.9    0.00       0    999.0
 265    2:20   62.2    68    9.0   334     11.9   880.8    0.00       0    999.0
 265    2:30   61.6    70    7.8   342     10.4   880.8    0.00       0    999.0
 265    2:40   61.1    71    5.3   341      7.5   880.8    0.00       0    999.0
 265    2:50   61.0    71    4.0   328      8.3   880.9    0.00       0    999.0
 265    3:00   61.5    69    5.9   314      8.0   880.8    0.00       0    999.0
 265    3:10   61.0    70    6.7   316      8.8   880.9    0.00       0    999.0
 265    3:20   60.8    70    4.6   347      9.0   880.7    0.00       0    999.0
 265    3:30   60.2    72    4.6   329      7.1   880.8    0.00       0    999.0
 265    3:40   59.9    73    3.7   320      5.5   880.9    0.00       0    999.0
 265    3:50   59.8    74    5.1   321      7.6   881.0    0.00       0    999.0
 265    4:00   59.7    74    5.3   318      8.1   881.1    0.00       0    999.0
 265    4:10   59.7    73    6.0   337      8.0   881.1    0.00       0    999.0
 265    4:20   58.3    75    3.9    16      7.1   881.2    0.00       0    999.0
 265    4:30   57.9    76    0.6    38      3.4   881.2    0.00       0    999.0
 265    4:40   57.7    76    0.0     0      0.0   881.2    0.00       0    999.0
 265    4:50   58.4    75    0.0   339      3.7   881.2    0.00       0    999.0
 265    5:00   59.2    74    5.8   346      9.3   881.2    0.00       0    999.0
 265    5:10   59.0    74    7.4   347     10.4   881.2    0.00       0    999.0
 265    5:20   59.1    73    6.9   350     10.4   881.3    0.00       0    999.0
 265    5:30   58.8    74    6.2   347      8.8   881.4    0.00       1    999.0
 265    5:40   58.1    76    5.1   351      7.6   881.4    0.00       4    999.0
 265    5:50   57.9    77    3.2     0      5.6   881.5    0.00      10    999.0
 265    6:00   57.3    77    0.0     3      0.1   881.6    0.00      32    999.0
 265    6:10   57.2    78    0.0     0      0.0   881.8    0.00      71    999.0
 265    6:20   58.3    76    0.0     0      0.0   881.9    0.00      99    999.0
 265    6:30   59.2    74    0.0     0      0.0   882.1    0.00     130    999.0
 265    6:40   60.5    71    0.3   108      3.2   882.2    0.00     162    999.0
 265    6:50   61.5    69    0.8   111      3.6   882.3    0.00     197    999.0
 265    7:00   61.6    69    2.8   129      5.9   882.3    0.00     233    999.0
 265    7:10   62.4    68    1.1   125      3.9   882.3    0.00     267    999.0
 265    7:20   62.8    66    2.6   120      4.5   882.3    0.00     301    999.0
 265    7:30   63.6    65    0.1   119      2.6   882.4    0.00     332    999.0
 265    7:40   65.6    61    0.0     0      0.0   882.5    0.00     370    999.0
 265    7:50   67.0    58    0.0     0      0.0   882.6    0.00     404    999.0
 265    8:00   68.3    55    0.0     0      0.0   882.7    0.00     438    999.0
 265    8:10   69.6    52    0.0   354      0.1   882.6    0.00     470    999.0
 265    8:20   70.3    50    0.0   324      1.3   882.6    0.00     503    999.0
 265    8:30   71.4    47    0.0     0      0.0   882.6    0.00     532    999.0
 265    8:40   73.1    43    0.0     0      0.0   882.5    0.00     560    999.0
 265    8:50   75.0    40    0.0     0      0.0   882.4    0.00     589    999.0
 265    9:00   74.5    40    0.2   315      3.1   882.4    0.00     619    999.0
 265    9:10   75.1    39    0.4    93      1.9   882.3    0.00     649    999.0
 265    9:20   75.3    37    1.1   144      3.2   882.3    0.00     673    999.0
 265    9:30   76.2    36    1.2   142      4.7   882.2    0.00     696    999.0
 265    9:40   76.0    36    1.9   152      5.3   882.2    0.00     717    999.0
 265    9:50   76.3    36    2.5   112      5.7   882.1    0.00     737    999.0
 265   10:00   77.0    34    1.7   142      5.3   882.0    0.00     756    999.0
 265   10:10   78.0    32    2.2   158      5.7   881.9    0.00     773    999.0
 265   10:20   77.7    30    3.1   140      6.6   881.9    0.00     788    999.0
 265   10:30   78.6    28    3.6   173      7.2   881.8    0.00     800    999.0
 265   10:40   79.2    27    2.3   136      6.1   881.7    0.00     809    999.0
 265   10:50   80.1    26    1.5   170      5.8   881.6    0.00     818    999.0
 265   11:00   81.0    26    2.4   196      5.8   881.6    0.00     830    999.0
 265   11:10   80.8    25    3.5   194      6.9   881.5    0.00     838    999.0
 265   11:20   81.4    25    1.7   153      6.8   881.5    0.00     846    999.0
 265   11:30   82.5    23    2.0   270      5.7   881.3    0.00     854    999.0
 265   11:40   82.0    24    4.9   136     10.3   881.1    0.00     857    999.0
 265   11:50   82.1    24    6.3   196     12.6   880.9    0.00     858    999.0
 265   12:00   82.1    24    6.2   242     11.3   880.8    0.00     854    999.0
 265   12:10   82.2    25    4.6   179     10.2   880.7    0.00     852    999.0
 265   12:20   82.5    25    4.4   153     11.0   880.5    0.00     850    999.0
 265   12:30   83.2    25    7.9   211     12.0   880.3    0.00     846    999.0
 265   12:40   82.8    25    5.6   228     13.7   880.2    0.00     835    999.0
 265   12:50   83.0    24    6.2   278     13.0   880.0    0.00     823    999.0
 265   13:00   83.6    24    4.6   281      8.9   879.8    0.00     811    999.0
 265   13:10   83.6    24    4.1   171      7.5   879.7    0.00     797    999.0
 265   13:20   84.0    21    7.9   186     15.2   879.6    0.00     779    999.0
 265   13:30   84.7    21    6.3   188     17.7   879.5    0.00     759    999.0
 265   13:40   85.0    21    8.4   181     16.1   879.4    0.00     742    999.0
 265   13:50   85.2    21    3.1   176      8.3   879.3    0.00     720    999.0
 265   14:00   84.8    21    6.8   115     14.1   879.2    0.00     701    999.0
 265   14:10   84.7    21    9.0   112     16.0   879.1    0.00     676    999.0
 265   14:20   85.4    20   11.7   150     17.2   879.1    0.00     650    999.0
 265   14:30   84.8    20    6.0   156     12.3   879.1    0.00     624    999.0
 265   14:40   84.6    20    7.6   135     18.3   879.0    0.00     596    999.0
 265   14:50   85.0    20    6.1   116     12.7   878.9    0.00     566    999.0
 265   15:00   85.0    20    6.7   119     12.8   878.8    0.00     536    999.0
 265   15:10   85.7    20    7.1   174     11.1   878.7    0.00     505    999.0
 265   15:20   85.7    20    3.6   112      8.4   878.6    0.00     473    999.0
 265   15:30   85.8    19    4.9   134     10.1   878.6    0.00     440    999.0
 265   15:40   85.3    19    9.0   171     15.9   878.5    0.00     406    999.0
 265   15:50   85.2    20    5.1   171      9.4   878.6    0.00     372    999.0
 265   16:00   85.2    19    6.6   138     12.2   878.5    0.00     337    999.0

Return to Sarcobatus Flat, Nevada graphs page.


Western Regional Climate Center,wrcc@dri.edu